メインページ
METAR-TAF:

METAR-TAF

空港 :

シウダー・フアレス, メキシコ

緯度: 31-38N, 経度: 106-26W, 海抜: 1171m

現時点の気象観測

当レポートは6時間9分前の02:42(UTC)に作成
の風 15kt
気温 22°C
湿度 13%
気圧 1021 hPa
視程: 16.1km
高度25000ftの雲は散在している

METAR: MMCS 260242Z 08015KT 10SM SCT250 22/M08 A3016 RMK SLP140 52005 904 8/008

時間: 01:51 (08:51 UTC)

予報

当レポートは3時間51分前の05:00(UTC)に作成
予報は26日の 06時(UTC)から 27日の 06時(UTC)まで有効
の風 12kt
視程: 10km
高度25000ftの雲は散在している
26日の 1600時(UTC)から
南東の風 15kt
視程: 10km
高度25000ftの千切れ雲あり
26日の 2100時(UTC)から
南東の風 10kt、最大25ktの突風を伴う
視程: 10km
高度2000ftの千切れ雲あり
高度25000ftの曇り
26日の 23時(UTC)から 27日の 03時(UTC)まで一時的に
視程: 4.8km
高度1500ftの千切れ雲あり, 積乱雲.
激しい雷雨, 雨

TAF: MMCS 260500Z 2606/2706 08012KT P6SM SCT250 FM261600 13015KT P6SM BKN250 FM262100 13010G25KT P6SM BKN020 OVC250 TEMPO 2623/2703 3SM TSRA BKN015CB

4,000以上の空港の気象観測と天気予報(METAR報とTAF報)

利用可能な観測所は地図上に黄色い丸と赤い丸で示す。

丸の上にカーソルを重ねると観測所名を参照できる。

次にクリックすると気象観測と天気予報を参照できる。

マップの切り替え:黒色「×」印の緑ボタンをクリックして拡大、「-」印の緑ボタンをクリックして縮小、緑色の三角印をクリックして隣りの地図に切り替え


METAR-TAF: